Latest Weather Observations for Cape Bruny AWS

IDT60801

Issued at 11:02 am EDT Thursday 2 April 2015 (issued every 30 minutes, with the page automatically refreshed every 10 minutes)

About weather observations | Map of weather stations | Latest weather observations for TAS | Other Formats
Station Details ID: 094198 Name: CAPE BRUNY (CAPE BRUNY) Lat: -43.49 Lon: 147.14 Height: 59.7 m
Data from the previous 72 hours. | See also: Recent months at Cape Bruny AWS
Date/Time
EDT
Temp
°C
App
Temp
°C
Dew
Point
Rel
Hum
%
Delta-T
°C
Wind Press
QNH
hPa
Press
MSL
hPa
Rain
since 9 am
mm
Dir
 
Spd
km/h
Gust
km/h
Spd
kts
Gust
kts
02/11:00am 11.4 3.9 4.4 62 3.1 S 33 54 18 29 1020.5 1020.5 0.0
02/10:30am 11.5 3.3 2.8 55 3.8 S 35 61 19 33 1020.1 1020.1 0.0
02/10:00am 11.4 2.7 4.2 61 3.2 S 39 61 21 33 1019.6 1019.6 0.0
02/09:30am 11.2 3.9 5.5 68 2.6 SSW 33 65 18 35 1019.0 1019.1 0.0
02/09:00am 10.8 1.6 5.6 70 2.4 S 43 65 23 35 1018.4 1018.4 4.2
02/08:51am 10.7 3.1 5.7 71 2.3 S 35 56 19 30 1018.2 1018.2 4.2
02/08:30am 10.0 1.0 6.3 78 1.7 SSE 43 56 23 30 1017.7 1017.7 4.0
02/08:00am 10.6 1.6 6.2 74 2.1 S 43 65 23 35 1016.7 1016.7 4.0
02/07:48am 9.4 1.4 5.8 78 1.7 S 37 56 20 30 1016.5 1016.5 4.0
02/07:45am 9.4 1.8 5.8 78 1.7 S 35 56 19 30 1016.5 1016.5 4.0
02/07:30am 9.9 1.7 6.6 80 1.5 SSW 39 65 21 35 1016.0 1016.0 4.0
02/07:00am 11.0 3.5 6.4 73 2.2 S 35 59 19 32 1015.3 1015.3 3.8
02/06:30am 10.7 3.4 7.0 78 1.8 S 35 63 19 34 1014.3 1014.3 3.8
02/06:05am 10.6 2.8 6.7 77 1.8 S 37 56 20 30 1013.8 1013.8 3.8
02/06:00am 10.4 2.2 6.7 78 1.7 S 39 56 21 30 1013.7 1013.7 3.8
02/05:32am 10.0 2.5 7.8 86 1.1 S 37 56 20 30 1013.1 1013.1 3.8
02/05:30am 9.9 2.0 7.7 86 1.1 S 39 56 21 30 1013.1 1013.1 3.8
02/05:00am 10.4 3.3 8.2 86 1.1 S 35 56 19 30 1012.3 1012.3 3.4
02/04:30am 10.7 3.3 8.3 85 1.2 S 37 56 20 30 1011.6 1011.6 3.4
02/04:00am 10.8 3.2 9.1 89 0.8 S 39 67 21 36 1010.9 1010.9 3.4
02/03:30am 11.0 3.5 9.4 90 0.8 S 39 61 21 33 1010.5 1010.5 3.0
02/03:00am 11.1 2.6 9.2 88 1.0 S 44 85 24 46 1009.7 1009.7 3.0
02/02:59am 11.1 2.6 9.2 88 1.0 S 44 85 24 46 1009.7 1009.7 3.0
02/02:30am 11.7 4.7 9.8 88 1.0 S 37 61 20 33 1009.3 1009.3 2.8
02/02:00am 11.8 4.4 9.9 88 1.0 S 39 63 21 34 1008.7 1008.7 2.6
02/01:30am 11.9 4.6 10.3 90 0.8 S 39 61 21 33 1007.8 1007.8 2.4
02/01:12am 12.4 6.0 10.8 90 0.8 SSW 35 69 19 37 1007.2 1007.2 2.2
02/01:00am 12.6 7.6 11.0 90 0.8 SW 28 50 15 27 1007.4 1007.4 1.6
02/12:34am 13.4 6.4 11.3 87 1.1 WSW 39 57 21 31 1006.5 1006.5 0.0
02/12:30am 13.6 6.2 11.1 85 1.3 W 41 57 22 31 1006.3 1006.3 0.0
02/12:03am 14.6 7.0 11.7 83 1.6 W 43 61 23 33 1005.0 1005.0 0.0
02/12:00am 14.6 6.3 11.4 81 1.7 W 46 61 25 33 1004.8 1004.8 0.0
 
Date/Time
EDT
Temp
°C
App
Temp
°C
Dew
Point
Rel
Hum
%
Delta-T
°C
Wind Press
QNH
hPa
Press
MSL
hPa
Rain
since 9 am
mm
Dir
 
Spd
km/h
Gust
km/h
Spd
kts
Gust
kts
01/11:46pm 15.7 8.8 10.2 70 2.9 W 37 69 20 37 1004.3 1004.2 0.0
01/11:42pm 17.6 11.8 9.5 59 4.3 WNW 30 46 16 25 1004.7 1004.6 0.0
01/11:30pm 19.5 15.6 9.4 52 5.4 NNW 20 28 11 15 1003.7 1003.6 0.0
01/11:00pm 18.7 16.6 9.8 56 4.8 N 11 19 6 10 1003.9 1003.8 0.0
01/10:30pm 18.4 16.0 10.0 58 4.5 NNE 13 20 7 11 1003.8 1003.7 0.0
01/10:00pm 18.1 16.2 10.5 61 4.1 NNE 11 19 6 10 1004.4 1004.3 0.0
01/09:30pm 18.1 15.7 10.0 59 4.3 NNE 13 17 7 9 1004.7 1004.6 0.0
01/09:00pm 17.7 16.6 10.6 63 3.8 W 7 11 4 6 1006.0 1006.0 0.0
01/08:30pm 18.5 16.2 10.6 60 4.3 WNW 13 20 7 11 1006.4 1006.4 0.0
01/08:00pm 16.8 15.5 11.3 70 3.0 NE 9 13 5 7 1006.5 1006.5 0.0
01/07:30pm 17.5 15.2 10.6 64 3.7 SSE 13 20 7 11 1006.1 1006.1 0.0
01/07:00pm 17.5 15.6 10.4 63 3.8 ESE 11 13 6 7 1005.6 1005.6 0.0
01/06:30pm 18.1 16.2 10.5 61 4.1 E 11 17 6 9 1005.4 1005.4 0.0
01/06:00pm 17.9 15.6 10.5 62 4.0 E 13 17 7 9 1005.6 1005.6 0.0
01/05:30pm 18.1 15.4 10.5 61 4.1 ESE 15 17 8 9 1006.0 1006.0 0.0
01/05:00pm 18.3 15.7 10.7 61 4.1 E 15 20 8 11 1006.1 1006.1 0.0
01/04:30pm 19.5 16.3 10.0 54 5.1 SE 17 22 9 12 1006.3 1006.3 0.0
01/04:00pm 21.2 18.8 10.1 49 6.0 NNE 13 17 7 9 1006.8 1006.8 0.0
01/03:30pm 21.3 19.0 10.5 50 5.9 NNE 13 17 7 9 1007.1 1007.1 0.0
01/03:00pm 21.9 19.2 9.1 44 6.9 N 13 20 7 11 1007.4 1007.4 0.0
01/02:30pm 22.1 18.6 8.6 42 7.2 NNW 17 24 9 13 1007.7 1007.7 0.0
01/02:00pm 20.4 16.1 7.7 44 6.6 N 20 26 11 14 1008.4 1008.4 0.0
01/01:30pm 20.7 16.6 8.0 44 6.6 N 19 30 10 16 1009.0 1009.0 0.0
01/01:00pm 20.3 15.9 7.3 43 6.7 N 20 30 11 16 1009.4 1009.4 0.0
01/12:30pm 19.1 15.8 8.1 49 5.7 N 15 22 8 12 1010.1 1010.1 0.0
01/12:00pm 18.0 14.2 9.1 56 4.7 N 19 24 10 13 1010.4 1010.4 0.0
01/11:30am 16.2 12.5 9.6 65 3.4 N 19 24 10 13 1011.1 1011.1 0.0
01/11:00am 16.6 11.0 8.8 60 4.0 N 28 35 15 19 1011.3 1011.3 0.0
01/10:30am 15.6 11.8 9.9 69 3.0 N 20 26 11 14 1011.5 1011.4 0.0
01/10:00am 15.5 10.9 9.8 69 3.0 N 24 32 13 17 1012.2 1012.2 0.0
01/09:30am 15.6 11.1 9.9 69 3.0 N 24 30 13 16 1012.5 1012.5 0.0
01/09:00am 14.9 11.1 9.9 72 2.6 NNE 20 28 11 15 1012.5 1012.5 0.0
01/08:30am 14.3 10.6 10.3 77 2.1 N 20 26 11 14 1012.7 1012.7 0.0
01/08:00am 14.0 10.0 10.6 80 1.8 N 22 28 12 15 1013.2 1013.2 0.0
01/07:30am 13.5 10.0 10.9 84 1.4 NNE 20 30 11 16 1012.9 1012.9 0.0
01/07:00am 13.3 10.0 11.0 86 1.2 NNE 19 26 10 14 1013.3 1013.3 0.0
01/06:30am 13.0 9.1 10.9 87 1.1 N 22 28 12 15 1013.6 1013.6 0.0
01/06:00am 13.0 9.1 10.9 87 1.1 N 22 30 12 16 1014.2 1014.2 0.0
01/05:30am 12.8 9.9 11.0 89 0.9 N 17 24 9 13 1014.7 1014.7 0.0
01/05:00am 12.9 9.7 11.3 90 0.8 NNE 19 28 10 15 1014.9 1014.9 0.0
01/04:30am 12.6 9.8 11.2 91 0.7 NNE 17 24 9 13 1015.3 1015.3 0.0
01/04:00am 12.4 10.6 11.0 91 0.7 NNE 11 19 6 10 1015.8 1015.8 0.0
01/03:30am 12.6 10.1 11.2 91 0.7 NNE 15 22 8 12 1016.7 1016.7 0.0
01/03:00am 12.4 9.8 10.8 90 0.8 N 15 20 8 11 1017.5 1017.5 0.0
01/02:30am 12.4 9.7 10.5 88 1.0 NNE 15 20 8 11 1017.9 1017.9 0.0
01/02:00am 12.7 10.5 10.8 88 1.0 NNE 13 17 7 9 1018.3 1018.3 0.0
01/01:30am 12.6 9.9 10.5 87 1.1 NNE 15 17 8 9 1018.7 1018.7 0.0
01/01:00am 12.9 9.9 10.8 87 1.1 NNE 17 19 9 10 1019.3 1019.2 0.0
01/12:30am 12.8 9.4 10.7 87 1.1 N 19 20 10 11 1019.7 1019.6 0.0
01/12:00am 12.6 9.1 10.3 86 1.2 N 19 20 10 11 1020.1 1020.0 0.0
 
Date/Time
EDT
Temp
°C
App
Temp
°C
Dew
Point
Rel
Hum
%
Delta-T
°C
Wind Press
QNH
hPa
Press
MSL
hPa
Rain
since 9 am
mm
Dir
 
Spd
km/h
Gust
km/h
Spd
kts
Gust
kts
31/11:30pm 12.3 9.2 10.4 88 1.0 N 17 20 9 11 1020.4 1020.3 0.0
31/11:00pm 12.4 9.4 10.5 88 1.0 N 17 20 9 11 1020.5 1020.4 0.0
31/10:30pm 12.9 9.9 10.8 87 1.1 NNW 17 20 9 11 1020.9 1020.8 0.0
31/10:00pm 12.8 10.1 10.3 85 1.3 N 15 17 8 9 1020.9 1020.8 0.0
31/09:30pm 12.6 10.7 9.2 80 1.7 N 9 11 5 6 1021.0 1020.9 0.0
31/09:00pm 13.0 11.7 9.3 78 1.9 WNW 6 7 3 4 1021.0 1020.9 0.0
31/08:30pm 13.6 13.4 9.1 74 2.3 CALM 0 0 0 0 1020.8 1020.7 0.0
31/08:00pm 13.7 13.5 9.2 74 2.3 CALM 0 2 0 1 1020.7 1020.6 0.0
31/07:30pm 14.1 12.8 9.3 73 2.5 NNE 6 7 3 4 1020.6 1020.5 0.0
31/07:00pm 14.3 12.9 9.7 74 2.4 ESE 7 11 4 6 1020.2 1020.1 0.0
31/06:30pm 15.1 13.0 9.9 71 2.7 ESE 11 15 6 8 1019.9 1019.8 0.0
31/06:00pm 15.5 12.3 10.1 70 2.8 ESE 17 22 9 12 1020.0 1019.9 0.0
31/05:30pm 15.5 11.9 9.8 69 3.0 ESE 19 26 10 14 1019.9 1019.8 0.0
31/05:00pm 15.7 11.8 9.6 67 3.2 ESE 20 26 11 14 1020.2 1020.1 0.0
31/04:30pm 15.9 11.0 10.0 68 3.1 ESE 26 30 14 16 1020.1 1020.0 0.0
31/04:00pm 16.3 12.1 9.9 66 3.4 ESE 22 26 12 14 1020.4 1020.3 0.0
31/03:30pm 16.7 13.0 10.3 66 3.4 ESE 20 24 11 13 1020.8 1020.7 0.0
31/03:00pm 17.0 13.4 10.4 65 3.5 ESE 20 24 11 13 1020.7 1020.6 0.0
31/02:30pm 16.8 13.9 11.1 69 3.1 ESE 17 24 9 13 1021.0 1020.9 0.0
31/02:00pm 17.2 14.7 11.0 67 3.3 ESE 15 22 8 12 1021.4 1021.3 0.0
31/01:30pm 18.4 16.3 11.0 62 4.0 SSE 13 20 7 11 1021.7 1021.6 0.0
31/01:00pm 18.9 17.7 9.7 55 4.9 ENE 6 9 3 5 1021.9 1021.8 0.0
31/12:30pm 19.0 16.6 10.0 56 4.8 NE 13 19 7 10 1022.2 1022.1 0.0
31/12:00pm 18.5 16.2 10.6 60 4.2 NE 13 19 7 10 1022.6 1022.5 0.0
31/11:30am 17.0 14.0 9.2 60 4.1 NNE 15 22 8 12 1022.7 1022.6 0.0
31/11:00am 16.8 13.2 9.7 63 3.7 NNE 19 26 10 14 1022.8 1022.7 0.0
31/10:30am 16.1 13.0 10.2 68 3.1 NNE 17 24 9 13 1022.9 1022.8 0.0
31/10:00am 16.3 14.0 10.4 68 3.1 N 13 20 7 11 1023.2 1023.1 0.0
31/09:30am 15.1 12.3 10.1 72 2.6 N 15 22 8 12 1023.4 1023.3 0.0
31/09:00am 14.5 12.0 9.7 73 2.5 N 13 17 7 9 1023.2 1023.1 0.0
31/08:30am 13.4 10.1 9.5 77 2.0 N 17 20 9 11 1023.1 1023.0 0.0
31/08:00am 12.0 8.6 9.0 82 1.5 N 17 20 9 11 1023.0 1022.9 0.0
31/07:30am 11.4 7.7 8.1 80 1.6 N 17 20 9 11 1022.8 1022.7 0.0
31/07:00am 11.7 8.2 8.6 81 1.5 N 17 20 9 11 1022.5 1022.4 0.0
31/06:30am 11.8 8.3 8.6 81 1.6 N 17 20 9 11 1022.1 1022.0 0.0
31/06:00am 11.9 8.7 8.4 79 1.7 N 15 20 8 11 1022.3 1022.2 0.0
31/05:30am 11.9 8.6 8.0 77 1.9 NNW 15 24 8 13 1022.2 1022.1 0.0
31/05:00am 12.3 9.0 8.2 76 2.0 N 15 22 8 12 1022.0 1021.9 0.0
31/04:30am 11.9 8.7 8.6 80 1.6 N 15 19 8 10 1022.1 1022.0 0.0
31/04:00am 11.7 8.1 8.4 80 1.6 N 17 19 9 10 1022.2 1022.1 0.0
31/03:30am 11.7 8.9 8.6 81 1.5 N 13 17 7 9 1022.1 1022.0 0.0
31/03:00am 12.1 9.6 8.2 77 1.9 N 11 19 6 10 1022.3 1022.2 0.0
31/02:30am 12.6 9.3 7.9 73 2.3 NNW 15 20 8 11 1022.4 1022.3 0.0
31/02:00am 13.1 9.4 7.8 70 2.6 NNW 17 24 9 13 1022.2 1022.1 0.0
31/01:30am 13.7 9.6 8.5 71 2.6 NW 20 28 11 15 1022.3 1022.2 0.0
31/01:00am 13.3 9.7 8.4 72 2.4 NW 17 22 9 12 1022.4 1022.3 0.0
31/12:30am 13.0 9.3 8.1 72 2.4 NNW 17 28 9 15 1022.3 1022.2 0.0
31/12:00am 12.8 9.5 8.1 73 2.3 N 15 20 8 11 1022.5 1022.4 0.0
 
Date/Time
EDT
Temp
°C
App
Temp
°C
Dew
Point
Rel
Hum
%
Delta-T
°C
Wind Press
QNH
hPa
Press
MSL
hPa
Rain
since 9 am
mm
Dir
 
Spd
km/h
Gust
km/h
Spd
kts
Gust
kts
30/11:30pm 13.5 9.9 8.4 71 2.6 NW 17 22 9 12 1022.5 1022.4 0.0
30/11:00pm 13.0 9.3 8.1 72 2.4 NNW 17 22 9 12 1022.5 1022.4 0.0
30/10:30pm 14.1 10.0 8.5 69 2.8 NW 20 28 11 15 1022.3 1022.2 0.0
30/10:00pm 14.3 9.4 8.5 68 2.9 WNW 24 30 13 16 1022.2 1022.1 0.0
30/09:30pm 14.5 10.1 9.1 70 2.8 NW 22 30 12 16 1022.1 1022.0 0.0
30/09:00pm 14.7 10.8 9.5 71 2.7 WNW 20 32 11 17 1021.9 1021.8 0.0
30/08:30pm 14.7 10.1 9.5 71 2.7 WNW 24 32 13 17 1021.5 1021.4 0.0
30/08:00pm 15.0 11.3 9.6 70 2.8 WNW 19 33 10 18 1021.2 1021.1 0.0
30/07:30pm 15.3 10.8 8.5 64 3.5 NW 22 32 12 17 1020.6 1020.5 0.0
30/07:00pm 15.5 11.6 9.4 67 3.1 WNW 20 32 11 17 1020.2 1020.1 0.0
30/06:30pm 16.3 9.8 8.8 61 3.9 WNW 33 46 18 25 1019.7 1019.6 0.0
30/06:00pm 16.8 10.6 9.2 61 3.9 WNW 32 41 17 22 1019.4 1019.3 0.0
30/05:30pm 17.2 10.2 8.6 57 4.4 WNW 35 44 19 24 1018.8 1018.8 0.0
30/05:00pm 17.6 10.1 9.5 59 4.2 W 39 48 21 26 1018.4 1018.4 0.0
30/04:30pm 17.9 10.5 9.8 59 4.3 W 39 46 21 25 1018.2 1018.2 0.0
30/04:00pm 18.2 10.8 9.8 58 4.4 W 39 52 21 28 1017.9 1017.9 0.0
30/03:36pm 18.2 9.9 10.1 59 4.3 WNW 44 63 24 34 1017.7 1017.7 0.0
30/03:30pm 18.2 12.0 10.1 59 4.3 W 33 54 18 29 1017.7 1017.7 0.0
30/03:28pm 18.5 13.5 10.8 61 4.2 W 28 54 15 29 1017.8 1017.8 0.0
30/03:00pm 16.4 12.6 11.3 72 2.7 WSW 22 32 12 17 1018.1 1018.1 0.0
30/02:30pm 17.7 14.4 11.5 67 3.4 SW 20 30 11 16 1017.8 1017.8 0.0
30/02:00pm 17.6 14.1 10.9 65 3.6 S 20 39 11 21 1017.9 1017.9 0.0
30/01:30pm 20.0 17.5 9.6 51 5.6 WNW 13 19 7 10 1017.5 1017.5 0.0
30/01:00pm 20.1 16.8 9.4 50 5.7 NW 17 24 9 13 1017.6 1017.6 0.0
30/12:30pm 19.0 16.7 10.3 57 4.7 WNW 13 20 7 11 1017.7 1017.7 0.0
30/12:00pm 17.2 11.1 10.3 64 3.7 NW 33 54 18 29 1017.7 1017.7 0.0
30/11:30am 16.1 7.8 10.0 67 3.2 WNW 44 56 24 30 1017.5 1017.5 0.0

Other Formats:

Comma delimited format used in spreadsheet applications
http://www.bom.gov.au/fwo/IDT60801/IDT60801.95967.axf

JavaScript Object Notation format (JSON) in row-major order
http://www.bom.gov.au/fwo/IDT60801/IDT60801.95967.json